Weather observations for the past three days for
Albemarle, Stanly County Airport
Metric (Imperial)
Date Time (edt) Wind (kph) Vis. (km) Weather Sky Cond. Temperature (ºC) Relative Humidity Wind Chill (°C) Heat Index (°C) Pressure Precipitation (cm)
Air Dwpt 6 hour altimeter (cm) sea level (mb) 1 hr 3 hr 6 hr
Max. Min.
03 19:35 Calm 16.09 Fair CLR 29.7 24.4 73% 35 76.28 0.0
03 19:15 Calm 16.09 Fair CLR 31 23.8 66% 36 76.3 0.0
03 18:55 SW 6 16.09 Fair CLR 32.8 23.3 57% 38 76.3 0.0
03 18:35 S 6 16.09 Fair CLR 33.6 23.2 54% 39 76.3 0.0
03 18:15 S 7 16.09 Fair CLR 34.3 22.8 51% 39 76.3 0.0
03 17:55 S 7 16.09 Fair CLR 34.7 22.7 50% 40 76.3 0.0
03 17:35 S 7 16.09 Fair CLR 34.9 22.4 48% 40 76.3 0.0
03 17:15 SE 9 16.09 Fair CLR 35.7 22 45% 40 76.3 0.0
03 16:55 S 11 16.09 Fair CLR 35.6 21.4 44% 40 76.3 0.0
03 16:35 S 11 16.09 Partly Cloudy SCT060 35.6 22.1 46% 40 76.3 0.0
03 16:15 S 7 16.09 Fair CLR 35.9 21.9 44% 40 76.33 0.0
03 15:55 Calm 16.09 Fair CLR 36 21 42% 40 76.35 0.0
03 15:35 Calm 16.09 Fair CLR 35.8 20.3 40% 39 76.35 0.0
03 15:15 S 9 16.09 Fair CLR 36.1 21.4 42% 40 76.38 0.0
03 14:55 Calm 16.09 Fair CLR 35.6 21.8 45% 40 76.38 0.0
03 14:35 S 9 16.09 Fair CLR 35.7 22 45% 40 76.4 0.0
03 14:15 NE 7 16.09 Fair CLR 35.6 21.6 44% 40 76.4 0.0
03 13:55 Calm 16.09 Fair CLR 35.2 21 35.7 23.3 44% 39 76.43 0.0 0.13 0.13
03 13:35 Calm 16.09 Fair CLR 35.2 21.4 45% 39 76.43 0.0 0.13
03 12:55 NE 6 16.09 Fair CLR 35 22.3 48% 40 76.48 0.0
03 12:35 Calm 16.09 Fair CLR 34.5 22.8 51% 40 76.5 0.0
03 12:15 Calm 16.09 Fair CLR 33.9 22.4 51% 39 76.5 0.0
03 11:55 Calm 16.09 Fair CLR 33.5 24.1 58% 40 76.5 0.0
03 11:35 Calm 16.09 Fair CLR 33.1 24.5 61% 40 76.5 0.0
03 11:15 Calm 16.09 Fair CLR 32.6 24.6 63% 39 76.5 0.0
03 10:55 Calm 16.09 Fair CLR 31.8 24.6 66% 38 76.5 0.0
03 10:35 Calm 16.09 Fair CLR 31.1 23.8 65% 36 76.5 0.0
03 10:15 Calm 16.09 Fair CLR 30.6 24.4 70% 36 76.5 0.0
03 09:55 Calm 16.09 Fair CLR 29.6 24 72% 35 76.5 0.0
03 09:35 Calm 16.09 Fair CLR 28.7 23.7 74% 33 76.5 0.0
03 09:15 Calm 16.09 Fair CLR 27.9 23.9 79% 32 76.5 0.0
03 08:55 Calm 16.09 Fair CLR 26.9 23.9 84% 30 76.5 0.0
03 08:35 Calm 16.09 Fair CLR 25.8 23.6 88% 27 76.5 0.0
03 08:15 Calm 16.09 Fair CLR 24.3 23.4 95% 24 76.5 0.0
03 07:55 Calm 16.09 Fair CLR 23.2 22.8 23.5 21.5 98% 76.53 0.0
03 07:35 Calm 16.09 Fair CLR 22.2 21.9 98% 76.5 0.0
03 07:15 Calm 16.09 Fair CLR 21.8 21.5 98% 76.5 0.0
03 06:55 Calm 16.09 Fair CLR 21.9 21.6 98% 76.48 0.0
03 06:35 Calm 11.27 Fair CLR 21.9 21.6 98% 76.45 0.0
03 06:15 Calm 16.09 Fair CLR 22 21.5 97% 76.45 0.0
03 05:55 Calm 16.09 Fair CLR 22.1 21.6 97% 76.45 0.0
03 05:35 Calm 16.09 Fair CLR 22.4 22 98% 76.43 0.0
03 05:15 Calm 16.09 Fair CLR 22.3 21.8 97% 76.43 0.0
03 04:55 Calm 16.09 Fair CLR 22.5 22 97% 76.43 0.0
03 04:35 Calm 16.09 Fair CLR 22.7 22.4 98% 76.4 0.0
03 04:15 Calm 16.09 Fair CLR 22.6 22.2 98% 76.4 0.0
03 03:55 Calm 16.09 Fair CLR 22.9 22.5 98% 76.4 0.0
03 03:35 Calm 16.09 Fair CLR 23 22.5 97% 76.4 0.0
03 03:15 Calm 16.09 Fair CLR 22.6 22.1 97% 76.4 0.0
03 02:55 Calm 16.09 Fair CLR 22.7 22.2 97% 76.4 0.0
03 02:35 Calm 16.09 Fair CLR 22.7 22.2 97% 76.4 0.0
03 02:15 Calm 16.09 Fair CLR 23.1 22.5 96% 76.4 0.0
03 01:55 Calm 16.09 Fair CLR 23.5 22.7 28.1 23.3 95% 76.4 0.0
03 01:35 Calm 16.09 Fair CLR 23.5 22.7 95% 76.4 0.0
03 01:15 Calm 16.09 Fair CLR 23.8 23 95% 76.4 0.0
03 00:55 Calm 16.09 Fair CLR 23.7 23.1 96% 76.4 0.0
03 00:35 Calm 16.09 Fair CLR 23.8 23 95% 76.4 0.0
03 00:15 Calm 16.09 Fair CLR 24 23.2 95% 23 76.38 0.0
02 23:55 Calm 16.09 Fair CLR 24.3 23.5 95% 24 76.4 0.0
02 23:35 Calm 16.09 Fair CLR 24.3 23.5 95% 24 76.4 0.0
02 23:15 Calm 16.09 Fair CLR 24.3 23.2 94% 24 76.4 0.0
02 22:55 Calm 16.09 Fair CLR 24.7 23.5 93% 25 76.45 0.0
02 22:35 Calm 16.09 Fair CLR 25 23.5 91% 26 76.48 0.0
02 22:15 Calm 16.09 Fair CLR 24.8 23.5 93% 25 76.5 0.0
02 21:55 Calm 16.09 Fair CLR 25 23.3 90% 26 76.5 0.0
02 21:35 Calm 16.09 Fair CLR 25.4 23 87% 27 76.48 0.0
02 21:15 Calm 16.09 Fair CLR 25.6 23.2 87% 27 76.45 0.0
02 20:55 Calm 16.09 Fair CLR 25.8 23.7 88% 27 76.43 0.0
02 20:35 Calm 16.09 Fair CLR 26.7 22.6 78% 29 76.4 0.0
02 20:15 Calm 16.09 Fair CLR 27.6 22.7 75% 30 76.4 0.0
02 19:55 Calm 16.09 Fair CLR 28.1 22.5 36 28.1 72% 31 76.38 0.0
02 19:35 Calm 16.09 Fair CLR 29.2 22.8 68% 33 76.38 0.0
02 19:15 Calm 16.09 Fair CLR 30.4 22.7 63% 34 76.38 0.0
02 18:55 Calm 16.09 Fair CLR 31.3 22.6 60% 35 76.38 0.0
02 18:35 Calm 16.09 Fair CLR 32.8 22.9 56% 38 76.38 0.0
02 18:15 Calm 16.09 Fair CLR 34.7 22.2 48% 39 76.38 0.0
02 17:55 Calm 16.09 Fair CLR 35.1 21 44% 39 76.4 0.0
02 17:35 Calm 16.09 Fair CLR 35.2 20.5 42% 38 76.4 0.0
02 17:15 Calm 16.09 Fair CLR 35.5 20.1 40% 38 76.4 0.0
02 16:55 Calm 16.09 Fair CLR 35.5 20 40% 38 76.4 0.0
02 16:35 Calm 16.09 Fair CLR 35.3 20.6 42% 38 76.4 0.0
02 16:15 Calm 16.09 Fair CLR 35.5 21 43% 39 76.4 0.0
02 15:55 W 9 16.09 Fair CLR 35.6 21.4 44% 40 76.43 0.0
02 15:35 Calm 16.09 Fair CLR 35.8 21 42% 39 76.43 0.0
02 15:15 Calm 16.09 Fair CLR 35.7 20.6 41% 39 76.45 0.0
02 14:55 Calm 16.09 Fair CLR 35.5 20.8 42% 39 76.45 0.0
02 14:35 Calm 16.09 Fair CLR 35.1 22.5 48% 40 76.48 0.0
02 14:15 Calm 16.09 Fair CLR 35.1 21.6 45% 39 76.5 0.0
02 13:55 Calm 16.09 Fair CLR 34.5 21.5 34.5 23 47% 38 76.5 0.0
02 13:35 W 6 16.09 Fair CLR 34.4 22.6 50% 39 76.5 0.0
02 13:15 Calm 16.09 Fair CLR 33.7 22.2 51% 38 76.53 0.0
02 12:55 Calm 16.09 Fair CLR 33.8 22.1 50% 38 76.56 0.0
02 12:35 N 6 16.09 Fair CLR 33.8 21.9 50% 38 76.56 0.0
02 12:15 Calm 16.09 Fair CLR 33.2 22.5 53% 38 76.58 0.0
02 11:55 NE 6 16.09 Fair CLR 32.7 22 53% 37 76.58 0.0
02 11:35 NE 6 16.09 Fair CLR 32.3 22.3 56% 36 76.58 0.0
02 11:20 NE 7 16.09 Fair CLR 32 22.4 57% 36 76.58 0.0
02 10:55 Calm 16.09 Fair CLR 31.5 22.4 58% 36 76.58 0.0
02 10:35 NE 6 16.09 Fair CLR 31.1 22.6 61% 35 76.58 0.0
02 10:15 N 6 16.09 Fair CLR 30.2 22.3 63% 34 76.56 0.0
02 09:55 Calm 16.09 Fair CLR 30 22.8 65% 34 76.56 0.0
02 09:35 Calm 16.09 Fair CLR 29.1 23 70% 33 76.56 0.0
02 09:15 Calm 16.09 Fair CLR 28.1 23.6 77% 32 76.56 0.0
02 08:55 Calm 16.09 Fair CLR 27.1 23.2 79% 30 76.58 0.0
02 08:35 Calm 16.09 Fair CLR 25.9 22.9 84% 28 76.58 0.0
02 08:15 Calm 16.09 Fair CLR 24.2 23.1 94% 24 76.56 0.0
02 07:55 Calm 16.09 Fair CLR 22.9 22.3 23.1 21.7 96% 76.58 0.0
02 07:35 Calm 16.09 Fair CLR 22.1 21.7 98% 76.56 0.0
02 07:15 Calm 16.09 Fair CLR 21.9 21.6 98% 76.53 0.0
02 06:55 Calm 16.09 Fair CLR 21.8 21.5 98% 76.53 0.0
02 06:35 Calm 11.27 Fair CLR 21.9 21.5 98% 76.53 0.0
02 06:15 Calm 16.09 Fair CLR 22 21.6 98% 76.53 0.0
02 05:55 Calm 16.09 Fair CLR 21.8 21.4 98% 76.53 0.0
02 05:35 Calm 16.09 Fair CLR 22.1 21.7 98% 76.5 0.0
02 05:15 Calm 16.09 Fair CLR 22.1 21.7 98% 76.5 0.0
02 04:55 Calm 16.09 Fair CLR 22.3 21.8 97% 76.5 0.0
02 04:35 Calm 16.09 Fair CLR 22.5 22 97% 76.48 0.0
02 04:15 Calm 16.09 Fair CLR 22.3 21.7 96% 76.5 0.0
02 03:55 Calm 16.09 Fair CLR 22.4 21.9 97% 76.48 0.0
02 03:35 Calm 16.09 Fair CLR 22.7 22.1 96% 76.48 0.0
02 03:15 Calm 16.09 Fair CLR 22.6 22.1 97% 76.48 0.0
02 02:55 Calm 16.09 Fair CLR 22.7 22.3 98% 76.5 0.0
02 02:35 Calm 16.09 Fair CLR 22.6 22.1 97% 76.5 0.0
02 02:15 Calm 16.09 Fair CLR 23 22.5 97% 76.5 0.0
02 01:55 Calm 16.09 Fair CLR 22.8 22.3 27.7 22.8 97% 76.5 0.0
02 01:35 Calm 16.09 Fair CLR 23.2 22.7 97% 76.48 0.0
02 01:15 Calm 16.09 Fair CLR 23.1 22.5 96% 76.48 0.0
02 00:55 Calm 16.09 Fair CLR 23.3 22.7 96% 76.48 0.0
02 00:35 Calm 16.09 Fair CLR 23.2 22.6 96% 76.45 0.0
02 00:15 Calm 16.09 Fair CLR 23.5 22.7 95% 76.45 0.0
01 23:55 Calm 16.09 Fair CLR 23.8 23 95% 76.45 0.0
01 23:35 Calm 16.09 Fair CLR 23.8 23 95% 76.45 0.0
01 23:15 Calm 16.09 Fair CLR 24 23.2 95% 23 76.45 0.0
01 22:55 Calm 16.09 Fair CLR 24 23.1 95% 23 76.45 0.0
01 22:35 Calm 16.09 Fair CLR 24.1 23.3 95% 23 76.45 0.0
01 22:15 Calm 16.09 Fair CLR 24.6 23.5 94% 25 76.45 0.0
01 21:55 Calm 16.09 Fair CLR 25 23.7 93% 26 76.43 0.0
01 21:35 Calm 16.09 Fair CLR 25.4 23.7 90% 27 76.43 0.0
01 21:15 Calm 16.09 Fair CLR 25.5 23.7 90% 27 76.4 0.0
01 20:55 Calm 16.09 Fair CLR 26 23.6 87% 28 76.4 0.0
01 20:35 Calm 16.09 Fair CLR 26.8 23.7 83% 30 76.38 0.0
01 20:15 Calm 16.09 Fair CLR 27 23.8 83% 30 76.38 0.0
01 19:55 Calm 16.09 Fair CLR 27.9 23.7 34.7 27.9 78% 32 76.4 0.0
01 19:35 Calm 16.09 Fair CLR 29 24.3 76% 34 76.4 0.0
01 19:15 Calm 16.09 Fair CLR 30 23.9 70% 35 76.4 0.0
01 18:55 Calm 16.09 Fair CLR 30.9 24.1 67% 36 76.4 0.0
01 18:35 Calm 16.09 Fair CLR 32 24.9 66% 39 76.4 0.0
01 18:15 Calm 16.09 Fair CLR 33.1 23.6 57% 39 76.4 0.0
01 17:55 Calm 16.09 Fair CLR 34 21.9 49% 38 76.4 0.0
01 17:35 SW 6 16.09 Partly Cloudy SCT060 34 22.2 50% 38 76.4 0.0
01 17:15 Calm 16.09 Partly Cloudy SCT060 SCT075 34.4 22 48% 39 76.4 0.0
01 16:55 W 7 16.09 Partly Cloudy SCT060 34.5 21.5 47% 38 76.4 0.0
01 16:35 W 6 16.09 Partly Cloudy SCT060 SCT070 34.6 21.3 46% 38 76.4 0.0
01 16:15 Calm 16.09 Fair CLR 34.4 21.4 47% 38 76.4 0.0
01 15:55 SW 6 16.09 Partly Cloudy SCT050 SCT065 34.5 21.9 48% 39 76.43 0.0
01 15:35 SW 6 16.09 Partly Cloudy SCT050 SCT065 34.2 22.4 50% 39 76.45 0.0
01 15:15 W 7 16.09 Mostly Cloudy BKN050 BKN065 34.3 22.5 50% 39 76.45 0.0
01 14:55 Calm 16.09 Mostly Cloudy BKN050 BKN065 BKN075 34 21.9 49% 38 76.48 0.0
01 14:35 Calm 16.09 Mostly Cloudy SCT055 BKN065 33.9 22.8 52% 39 76.5 0.0
01 14:15 Calm 16.09 Partly Cloudy SCT065 33.9 22.5 51% 39 76.5 0.0
01 13:55 Calm 16.09 Fair CLR 33.3 22.3 33.5 22.2 52% 38 76.5 0.0
01 13:35 W 7 16.09 Fair CLR 33.5 22.2 52% 38 76.53 0.0
01 13:15 Calm 16.09 Fair CLR 33 22.3 53% 37 76.53 0.0
01 12:55 Calm 16.09 Fair CLR 32.5 22.7 56% 37 76.56 0.0
01 12:35 Calm 16.09 Fair CLR 32.2 23.2 59% 37 76.58 0.0
01 12:15 Calm 16.09 Fair CLR 31.9 23.5 61% 37 76.58 0.0
01 11:55 SW 6 16.09 Fair CLR 31.2 23.1 62% 36 76.61 0.0
01 11:35 W 6 16.09 Fair CLR 30.8 23.1 64% 35 76.61 0.0
01 11:15 SW 9 16.09 Fair CLR 30.5 23.2 65% 35 76.63 0.0
01 10:55 NW 6 16.09 Fair CLR 30.1 22.8 65% 34 76.63 0.0
01 10:15 N 6 16.09 Fair CLR 29.1 23.5 72% 33 76.63 0.0
01 09:55 N 9 16.09 Fair CLR 29 23.6 73% 33 76.61 0.0
01 09:35 N 7 16.09 Fair CLR 28.2 23 73% 32 76.61 0.0
01 09:15 N 6 16.09 Fair CLR 27.4 22.9 77% 30 76.61 0.0
01 08:55 Calm 16.09 Light Rain CLR 25.8 22.6 83% 27 76.61 0.0
01 08:35 Calm 16.09 Fair CLR 24.7 22.5 88% 25 76.61 0.0
01 08:15 Calm 16.09 Fair CLR 23.1 22.4 96% 76.61 0.0
01 07:55 Calm 16.09 Fair CLR 22.1 21.8 22.8 20.5 98% 76.58 0.0
01 07:35 Calm 16.09 Fair CLR 21 20.7 98% 76.58 0.0
01 07:15 Calm 16.09 Fair CLR 20.7 20.5 99% 76.56 0.0
01 06:55 Calm 16.09 Fair CLR 20.8 20.5 98% 76.56 0.0
01 06:35 Calm 16.09 Fair CLR 21 20.7 98% 76.53 0.0
01 06:15 Calm 11.27 Fair CLR 20.9 20.6 98% 76.53 0.0
01 05:55 Calm 16.09 Fair CLR 21.1 20.8 98% 76.53 0.0
01 05:35 Calm 11.27 Fair CLR 21.3 21 98% 76.53 0.0
01 05:15 Calm 11.27 Fair CLR 21.5 21.2 98% 76.53 0.0
01 04:55 Calm 16.09 Fair CLR 21.4 21.1 98% 76.53 0.0
01 04:35 Calm 16.09 Fair CLR 21.7 21.3 98% 76.56 0.0
01 04:15 Calm 16.09 Fair CLR 22 21.6 98% 76.56 0.0
01 03:55 Calm 16.09 Fair CLR 21.7 21.3 98% 76.56 0.0
01 03:35 Calm 16.09 Fair CLR 22 21.6 98% 76.53 0.0
01 03:15 Calm 16.09 Fair CLR 22 21.5 97% 76.56 0.0
01 02:55 Calm 16.09 Fair CLR 22 21.5 97% 76.58 0.0
01 02:35 Calm 16.09 Fair CLR 22.6 22.1 97% 76.58 0.0
01 02:15 Calm 16.09 Fair CLR 22.7 22.2 97% 76.58 0.0
01 01:55 Calm 16.09 Fair CLR 22.4 21.8 27.6 22.4 96% 76.58 0.0
01 01:35 Calm 16.09 Fair CLR 22.6 22.2 98% 76.58 0.0
01 01:15 Calm 16.09 Fair CLR 22.8 22.2 96% 76.58 0.0
01 00:55 Calm 16.09 Fair CLR 23 22.4 96% 76.58 0.0
01 00:35 Calm 16.09 Fair CLR 23.3 22.9 98% 76.58 0.0
01 00:15 Calm 16.09 Fair CLR 22.7 22.2 97% 76.58 0.0
31 23:55 Calm 16.09 Fair CLR 23.2 22.7 97% 76.58 0.0
31 23:35 Calm 16.09 Fair CLR 23.2 22.6 96% 76.58 0.0
31 23:15 Calm 16.09 Fair CLR 23.7 23 96% 76.58 0.0
31 22:55 Calm 16.09 Fair CLR 23.9 23.1 95% 23 76.58 0.0
31 22:35 Calm 16.09 Fair CLR 24.1 23.2 95% 23 76.58 0.0
31 22:15 Calm 16.09 Fair CLR 24.2 23.4 95% 24 76.58 0.0
31 21:55 Calm 16.09 Fair CLR 24.5 23.5 94% 24 76.58 0.0
31 21:35 Calm 16.09 Fair CLR 24.8 23.8 94% 25 76.56 0.0
31 21:15 Calm 16.09 Fair CLR 25.2 23.8 92% 26 76.53 0.0
31 20:55 Calm 16.09 Fair CLR 25.6 24 91% 27 76.53 0.0
31 20:35 Calm 16.09 Fair CLR 25.9 24.3 91% 28 76.5 0.0
31 20:15 Calm 16.09 Fair CLR 26.6 24.5 88% 29 76.5 0.0
Date Time (edt) Wind (kph) Vis. (km) Weather Sky Cond. Air Dwpt Max. Min. Relative Humidity Wind Chill (°C) Heat Index (°C) altimeter (cm) sea level (mb) 1 hr 3 hr 6 hr
6 hour
Temperature (ºC) Pressure Precipitation (cm)